»·PEaware :: SKW5015 KLBF-KDEN

SKW5015 :: KLBF-KDEN

FLIGHT INFORMATION

Flight Status: Arrived
Operator:
SkyWest Airlines
More flights by this operator :: More flights under this callsign
Pilot: Jack B. (5846)
Aircraft: CANADAIR CL-600 CRJ-200
(CRJ2)
More flights by this aircraft type
Origin: KLBF North Platte Regl-Bird
United States
Destination: KDEN Denver Intl
United States
More flights between these airports :: More routes between these airports
Route: +PIEKE KOHOE3
File this flight plan on PilotEdge
Remarks:
Altitude:
(Current/Filed)
260ft
Speed:
(Current/Filed)
320kts
Departed: 27-Oct-18 07:49 PM
Arrived: 27-Oct-18 08:34 PM
Distance/Time
Traveled:
197nm/0:44
Distance/Time
To Go:
Arrived

Flight Plot

Page will automatically refresh every two minutes.

Flight plan parsing failed; only flown route is shown


Map Options




Map Legend


Flown Route
Filed Route
Departure Airport
Arrival Airport
Navaid (VOR, NDB)
Fix

Horizontal Profiles

Position Reports

Time Latitude Longitude Heading Altitude Ground
Speed
27-Oct-18 19:30 41.132148 -100.696393 92 2778ft 0kts
27-Oct-18 19:31 41.132148 -100.696393 92 2778ft 0kts
27-Oct-18 19:32 41.132148 -100.696393 92 2778ft 0kts
27-Oct-18 19:33 41.132148 -100.696393 92 2778ft 0kts
27-Oct-18 19:34 41.132148 -100.696393 92 2778ft 0kts
27-Oct-18 19:35 41.132148 -100.696393 92 2778ft 0kts
27-Oct-18 19:36 41.132148 -100.696393 92 2778ft 0kts
27-Oct-18 19:37 41.132148 -100.696393 92 2778ft 0kts
27-Oct-18 19:38 41.132148 -100.696393 92 2778ft 0kts
27-Oct-18 19:39 41.132148 -100.696393 92 2778ft 0kts
27-Oct-18 19:40 41.132148 -100.696393 92 2778ft 0kts
27-Oct-18 19:41 41.132148 -100.696393 92 2778ft 0kts
27-Oct-18 19:42 41.132148 -100.696393 92 2778ft 0kts
27-Oct-18 19:43 41.132148 -100.696393 92 2778ft 0kts
27-Oct-18 19:44 41.132148 -100.696393 92 2778ft 0kts
27-Oct-18 19:45 41.132148 -100.696393 92 2778ft 0kts
27-Oct-18 19:46 41.131568 -100.696544 184 2777ft 11kts
27-Oct-18 19:47 41.131193 -100.694220 90 2777ft 11kts
27-Oct-18 19:48 41.131192 -100.694091 91 2777ft 0kts
27-Oct-18 19:49 41.131200 -100.693237 76 2777ft 12kts
27-Oct-18 19:50 41.132643 -100.692838 179 2776ft 4kts
27-Oct-18 19:51 41.121818 -100.693136 179 2775ft 140kts
27-Oct-18 19:53 41.094046 -100.720344 283 4528ft 155kts
27-Oct-18 19:54 41.092796 -100.790009 262 6202ft 226kts
27-Oct-18 19:55 41.068508 -100.878162 252 8326ft 280kts
27-Oct-18 19:56 41.037263 -100.970507 253 11461ft 273kts
27-Oct-18 19:57 41.005815 -101.061622 253 13732ft 284kts
27-Oct-18 19:58 40.971725 -101.160632 252 15618ft 300kts
27-Oct-18 19:59 40.935364 -101.265179 252 17462ft 324kts
27-Oct-18 20:00 40.896659 -101.375682 252 19293ft 337kts
27-Oct-18 20:01 40.856589 -101.489667 252 20861ft 351kts
27-Oct-18 20:01 40.821588 -101.588834 252 21964ft 363kts
27-Oct-18 20:03 40.770568 -101.732783 252 23279ft 379kts
27-Oct-18 20:03 40.732926 -101.838513 252 24200ft 386kts
27-Oct-18 20:05 40.679043 -101.989189 253 25480ft 393kts
27-Oct-18 20:05 40.640040 -102.097816 253 26148ft 401kts
27-Oct-18 20:06 40.591273 -102.234105 252 26163ft 417kts
27-Oct-18 20:07 40.541698 -102.370910 252 26161ft 414kts
27-Oct-18 20:08 40.491703 -102.506807 251 26161ft 412kts
27-Oct-18 20:09 40.442147 -102.641060 253 26151ft 409kts
27-Oct-18 20:10 40.408108 -102.780742 263 26150ft 403kts
27-Oct-18 20:11 40.380839 -102.924162 263 26154ft 407kts
27-Oct-18 20:12 40.353248 -103.068673 262 26155ft 409kts
27-Oct-18 20:13 40.325835 -103.212937 261 25783ft 404kts
27-Oct-18 20:14 40.298516 -103.354005 261 25270ft 396kts
27-Oct-18 20:15 40.271335 -103.493324 261 24762ft 399kts
27-Oct-18 20:16 40.243876 -103.632896 261 23995ft 384kts
27-Oct-18 20:17 40.218840 -103.759140 261 22926ft 336kts
27-Oct-18 20:18 40.191560 -103.868627 248 21864ft 314kts
27-Oct-18 20:19 40.147090 -103.966958 246 20847ft 320kts
27-Oct-18 20:20 40.102206 -104.063941 246 19623ft 304kts
27-Oct-18 20:21 40.061226 -104.152784 246 17786ft 271kts
27-Oct-18 20:22 40.023952 -104.233609 245 15992ft 263kts
27-Oct-18 20:23 39.985763 -104.315905 244 14227ft 264kts
27-Oct-18 20:24 39.948183 -104.396636 243 12836ft 260kts
27-Oct-18 20:25 39.911015 -104.476029 238 11732ft 258kts
27-Oct-18 20:26 39.839629 -104.499426 185 10391ft 278kts
27-Oct-18 20:27 39.766766 -104.501336 183 9021ft 245kts
27-Oct-18 20:28 39.699110 -104.502514 183 7631ft 240kts
27-Oct-18 20:29 39.642045 -104.505368 217 7539ft 179kts
27-Oct-18 20:30 39.645655 -104.553991 328 7515ft 162kts
27-Oct-18 20:31 39.686200 -104.584527 328 7505ft 181kts
27-Oct-18 20:32 39.732320 -104.619611 328 7496ft 195kts
27-Oct-18 20:33 39.774526 -104.652734 329 6778ft 154kts
27-Oct-18 20:34 39.812752 -104.660874 359 5791ft 138kts
27-Oct-18 20:35 39.846619 -104.660305 359 5436ft 78kts
27-Oct-18 20:36 39.856741 -104.661611 269 5436ft 12kts
27-Oct-18 20:37 39.858685 -104.664876 1 5436ft 19kts
27-Oct-18 20:38 39.859428 -104.666983 181 5436ft 0kts
27-Oct-18 20:39 39.859428 -104.666983 181 5436ft 0kts
27-Oct-18 20:40 39.859428 -104.666983 181 5436ft 0kts

Navigation Log

Ident Type
Flight plan parsing failed, navigation log unavailable